Archival Weather

Fukuoka

Fukuoka, Japan (RJFF)

Report from: Tuesday, August 16, 2022 4:30 PM JST
Current time: Sunday, November 27, 2022 4:55 PM JST

Current weather
Weather history
Weather forecast

Present weatherLight thunderstorm with rain, light thunderstorm with rain
Temperature27.0°C (80.6°F)
Heat index30.6°C (87.0°F)
Dew point25.0°C (77.0°F)
Winds 9 kts (4.6 m/s, 10.4 mph) South-Southeast (150°)
Visibility6.2 mi. (10 km)
Clouds Few clouds 800 ft. (244 m)
Few clouds with cumulonimbus 3,000 ft. (914 m)
Scattered clouds 4,000 ft. (1,219 m)
Ceiling: Broken clouds 5,000 ft. (1,524 m)
Altimeter29.74 in.Hg (1007 mB)
Precip. events C 4:01 PM
Relative humidity89 %
Density altitude2,017 ft. (615 m)
Remarks Thunderstorm south moving northeast
Flight conditions Visual Meteorological Conditions
Raw dataRJFF 160730Z 15009KT 9999 -TSRA FEW008 FEW030CB SCT040 BKN050 27/25 Q1007 TEMPO 4000 -TSRA BR RMK 1ST008 1CB030 3CU040 5SC050 A2974 FBL TS 15KM S MOV NE
An error has occurred. This application may no longer respond until reloaded. Reload 🗙